Time;durP1;ratioP1;P1;durP2;ratioP2;P2;SDS_P1;SDS_P2;PMS_P1;PMS_P2;Temp;Humidity;BMP_temperature;BMP_pressure;BME280_temperature;BME280_humidity;BME280_pressure;Samples;Min_cycle;Max_cycle;Signal;HPM_P1;HPM_P2
2022/12/25 00:02:24;;;;;;;0.10;0.10;;;6.20;99.90;226.50;231333.00;;;;5027140;28;20199;-73
2022/12/25 00:04:52;;;;;;;0.10;0.10;;;6.20;99.90;226.50;231333.00;;;;5040589;28;20195;-72
2022/12/25 00:07:20;;;;;;;0.10;0.10;;;6.00;99.90;226.50;231333.00;;;;5036252;28;20265;-71
2022/12/25 00:09:48;;;;;;;0.10;0.10;;;5.80;99.90;226.50;231333.00;;;;5036902;28;20258;-71
2022/12/25 00:12:18;;;;;;;0.10;0.10;;;5.70;99.90;226.50;231333.00;;;;5038836;28;20276;-71
2022/12/25 00:14:46;;;;;;;0.10;0.10;;;5.70;99.90;226.50;231333.00;;;;5043327;28;20206;-71
2022/12/25 00:17:14;;;;;;;0.10;0.10;;;5.80;99.90;226.50;231333.00;;;;5044836;28;20206;-71
2022/12/25 00:19:42;;;;;;;0.10;0.10;;;5.80;99.90;226.50;231333.00;;;;5046273;28;20190;-72
2022/12/25 00:22:10;;;;;;;0.10;0.10;;;5.90;99.90;226.50;231333.00;;;;5041018;28;20262;-71
2022/12/25 00:24:38;;;;;;;0.10;0.10;;;5.90;99.90;226.50;231333.00;;;;5034060;28;20219;-71
2022/12/25 00:27:06;;;;;;;0.10;0.10;;;6.00;99.90;226.50;231333.00;;;;5042470;28;20622;-71
2022/12/25 00:29:36;;;;;;;0.10;0.10;;;6.00;99.90;226.50;231333.00;;;;5027832;28;20233;-72
2022/12/25 00:32:05;;;;;;;0.10;0.10;;;6.10;99.90;226.50;231333.00;;;;5043979;28;20280;-72
2022/12/25 00:34:33;;;;;;;0.10;0.10;;;6.00;99.90;226.50;231333.00;;;;5042123;28;20190;-73
2022/12/25 00:37:01;;;;;;;0.10;0.10;;;6.10;99.90;226.50;231333.00;;;;5042037;28;20221;-71
2022/12/25 00:39:28;;;;;;;0.10;0.10;;;6.10;99.90;226.50;231333.00;;;;5041208;28;20250;-71
2022/12/25 00:44:43;;;;;;;0.10;0.10;;;5.90;99.90;226.50;231333.00;;;;5041684;28;20234;-71
2022/12/25 00:47:11;;;;;;;0.10;0.10;;;5.80;99.90;226.50;231333.00;;;;5045379;28;20242;-71
2022/12/25 00:49:39;;;;;;;0.10;0.10;;;5.80;99.90;226.50;231333.00;;;;5036447;28;20210;-71
2022/12/25 00:52:08;;;;;;;0.10;0.10;;;5.70;99.90;226.50;231333.00;;;;5039655;28;20247;-71
2022/12/25 00:54:36;;;;;;;0.10;0.10;;;5.80;99.90;226.50;231333.00;;;;5030991;28;20199;-72
2022/12/25 00:57:04;;;;;;;0.10;0.10;;;5.90;99.90;226.50;231333.00;;;;5034357;28;20220;-71
2022/12/25 00:59:34;;;;;;;0.10;0.10;;;5.90;99.90;226.50;231333.00;;;;5039055;28;20199;-71
2022/12/25 01:04:45;;;;;;;0.10;0.10;;;5.80;99.90;226.50;231333.00;;;;5042597;28;20194;-71
2022/12/25 01:07:15;;;;;;;0.10;0.10;;;5.80;99.90;226.50;231333.00;;;;5035126;28;20234;-72
2022/12/25 01:12:30;;;;;;;0.10;0.10;;;5.90;99.90;226.50;231333.00;;;;5035431;28;20226;-72
2022/12/25 01:14:58;;;;;;;0.10;0.10;;;5.70;99.90;226.50;231333.00;;;;5045591;28;20195;-72
2022/12/25 01:17:28;;;;;;;0.10;0.10;;;5.70;99.90;226.50;231333.00;;;;5043846;28;20210;-72
2022/12/25 01:19:55;;;;;;;0.10;0.10;;;5.70;99.90;226.50;231333.00;;;;5041669;28;20586;-71
2022/12/25 01:22:23;;;;;;;0.10;0.10;;;5.70;99.90;226.50;231333.00;;;;5041152;28;20199;-72
2022/12/25 01:24:51;;;;;;;0.10;0.10;;;5.70;99.90;226.50;231333.00;;;;5033369;28;20195;-72
2022/12/25 01:27:19;;;;;;;0.00;0.00;;;5.70;99.90;226.50;231333.00;;;;5044411;28;20211;-72
2022/12/25 01:29:47;;;;;;;0.10;0.10;;;5.80;99.90;226.50;231333.00;;;;5044805;28;20222;-71
2022/12/25 01:32:15;;;;;;;0.10;0.10;;;5.80;99.90;226.50;231333.00;;;;5041433;28;20571;-71
2022/12/25 01:34:44;;;;;;;0.10;0.10;;;5.80;99.90;226.50;231333.00;;;;5036682;28;20195;-73
2022/12/25 01:37:20;;;;;;;0.00;0.00;;;5.70;99.90;226.50;231333.00;;;;5041422;28;20238;-72
2022/12/25 01:39:48;;;;;;;0.10;0.10;;;5.70;99.90;226.50;231333.00;;;;5036913;28;20531;-72
2022/12/25 01:42:18;;;;;;;0.00;0.00;;;5.80;99.90;226.50;231333.00;;;;5041001;28;20739;-73
2022/12/25 01:45:34;;;;;;;0.10;0.10;;;5.70;99.90;226.50;231333.00;;;;5040528;28;20187;-72
2022/12/25 01:48:08;;;;;;;0.10;0.10;;;5.70;99.90;226.50;231333.00;;;;5039849;28;20191;-72
2022/12/25 01:50:42;;;;;;;0.08;0.08;;;5.70;99.90;226.50;231333.00;;;;5027791;28;20230;-76
2022/12/25 01:53:11;;;;;;;0.10;0.10;;;5.70;99.90;226.50;231333.00;;;;5031892;28;20221;-72
2022/12/25 01:55:43;;;;;;;0.10;0.10;;;5.60;99.90;226.50;231333.00;;;;5032505;28;20199;-74
2022/12/25 01:58:11;;;;;;;0.10;0.10;;;5.70;99.90;226.50;231333.00;;;;5046788;28;20198;-73
2022/12/25 02:00:39;;;;;;;0.10;0.10;;;5.70;99.90;226.50;231333.00;;;;5041303;28;20194;-73
2022/12/25 02:03:07;;;;;;;0.10;0.10;;;5.80;99.90;226.50;231333.00;;;;5033635;28;20324;-72
2022/12/25 02:05:37;;;;;;;0.10;0.10;;;5.50;99.90;226.50;231333.00;;;;5034717;28;20665;-73
2022/12/25 02:08:10;;;;;;;0.10;0.10;;;5.50;99.90;226.50;231333.00;;;;5041075;28;20249;-72
2022/12/25 02:10:38;;;;;;;0.10;0.10;;;5.50;99.90;226.50;231333.00;;;;5041732;28;20198;-73
2022/12/25 02:13:07;;;;;;;0.00;0.00;;;5.50;99.90;226.50;231333.00;;;;5043074;28;20256;-73
2022/12/25 02:15:49;;;;;;;0.10;0.10;;;5.50;99.90;226.50;231333.00;;;;5043670;28;20293;-72
2022/12/25 02:18:31;;;;;;;0.10;0.10;;;5.60;99.90;226.50;231333.00;;;;5040185;28;20666;-73
2022/12/25 02:21:22;;;;;;;0.10;0.10;;;5.60;99.90;226.50;231333.00;;;;5046320;28;20206;-73
2022/12/25 02:24:29;;;;;;;0.10;0.10;;;5.50;99.90;226.50;231333.00;;;;5022610;28;20195;-73
2022/12/25 02:27:18;;;;;;;0.10;0.10;;;5.50;99.90;226.50;231333.00;;;;5039079;28;20219;-72
2022/12/25 02:30:01;;;;;;;0.10;0.10;;;5.50;99.90;226.50;231333.00;;;;5035947;28;20195;-73
2022/12/25 02:32:40;;;;;;;0.10;0.10;;;5.50;99.90;226.50;231333.00;;;;5036081;28;20206;-73
2022/12/25 02:35:14;;;;;;;0.10;0.10;;;5.40;99.90;226.50;231333.00;;;;5041336;28;20201;-72
2022/12/25 02:37:51;;;;;;;0.10;0.10;;;5.50;99.90;226.50;231333.00;;;;5045047;28;20244;-72
2022/12/25 02:40:26;;;;;;;0.10;0.10;;;5.40;99.90;226.50;231333.00;;;;5043913;28;20199;-73
2022/12/25 03:08:47;;;;;;;0.10;0.10;;;5.50;99.90;226.50;231333.00;;;;5038298;28;20594;-75
2022/12/25 03:11:32;;;;;;;0.10;0.10;;;5.60;99.90;226.50;231333.00;;;;5044362;28;20228;-76
2022/12/25 03:16:50;;;;;;;0.10;0.10;;;5.70;99.90;226.50;231333.00;;;;5034780;28;20632;-74
2022/12/25 03:27:55;;;;;;;0.10;0.10;;;6.10;99.90;226.50;231333.00;;;;5034482;28;20214;-74
2022/12/25 03:33:23;;;;;;;0.00;0.00;;;6.30;99.90;226.50;231333.00;;;;5037289;28;20327;-74
2022/12/25 03:36:21;;;;;;;0.10;0.10;;;6.30;99.90;226.50;231333.00;;;;5042865;28;20658;-74
2022/12/25 04:38:02;;;;;;;0.10;0.10;;;7.40;99.90;226.50;231333.00;;;;5044197;28;20218;-74
2022/12/25 04:40:30;;;;;;;0.10;0.10;;;7.40;99.90;226.50;231333.00;;;;5046270;28;20645;-75
2022/12/25 04:42:59;;;;;;;0.10;0.10;;;7.40;99.90;226.50;231333.00;;;;5037133;28;20233;-74
2022/12/25 04:45:27;;;;;;;0.10;0.10;;;7.40;99.90;226.50;231333.00;;;;5046515;28;20226;-74
2022/12/25 04:47:55;;;;;;;0.10;0.10;;;7.40;99.90;226.50;231333.00;;;;5044887;28;20198;-75
2022/12/25 04:50:23;;;;;;;0.10;0.10;;;7.40;99.90;226.50;231333.00;;;;5036554;28;20226;-74
2022/12/25 04:52:51;;;;;;;0.10;0.10;;;7.40;99.90;226.50;231333.00;;;;5047713;28;20673;-74
2022/12/25 04:55:19;;;;;;;0.10;0.10;;;7.50;99.90;226.50;231333.00;;;;5033613;28;20191;-75
2022/12/25 04:57:47;;;;;;;0.00;0.00;;;7.50;99.90;226.50;231333.00;;;;5033435;28;20597;-74
2022/12/25 05:00:17;;;;;;;0.10;0.10;;;7.50;99.90;226.50;231333.00;;;;5036771;28;20217;-74
2022/12/25 05:02:45;;;;;;;0.10;0.10;;;7.50;99.90;226.50;231333.00;;;;5043911;28;20199;-74
2022/12/25 05:05:14;;;;;;;0.10;0.10;;;7.50;99.90;226.50;231333.00;;;;5041439;28;20210;-74
2022/12/25 05:07:42;;;;;;;0.10;0.10;;;7.40;99.90;226.50;231333.00;;;;5041453;28;20250;-75
2022/12/25 05:10:11;;;;;;;0.10;0.10;;;7.40;99.90;226.50;231333.00;;;;5037764;28;20203;-74
2022/12/25 05:12:39;;;;;;;0.10;0.10;;;7.40;99.90;226.50;231333.00;;;;5046398;28;20720;-74
2022/12/25 05:15:08;;;;;;;0.10;0.10;;;7.40;99.90;226.50;231333.00;;;;5043141;28;20272;-74
2022/12/25 05:17:37;;;;;;;0.10;0.10;;;7.40;99.90;226.50;231333.00;;;;5044989;28;20279;-75
2022/12/25 05:20:06;;;;;;;0.10;0.10;;;7.40;99.90;226.50;231333.00;;;;5041464;28;20199;-75
2022/12/25 05:22:34;;;;;;;0.10;0.10;;;7.50;99.90;226.50;231333.00;;;;5044991;28;20194;-75
2022/12/25 05:25:02;;;;;;;0.10;0.10;;;7.50;99.90;226.50;231333.00;;;;5041855;28;20269;-75
2022/12/25 05:27:30;;;;;;;0.10;0.10;;;7.60;99.90;226.50;231333.00;;;;5032343;28;20815;-75
2022/12/25 05:29:58;;;;;;;0.10;0.10;;;7.60;99.90;226.50;231333.00;;;;5033582;28;20207;-75
2022/12/25 05:32:26;;;;;;;0.10;0.10;;;7.60;99.90;226.50;231333.00;;;;5045175;28;20588;-75
2022/12/25 05:34:55;;;;;;;0.10;0.10;;;7.60;99.90;226.50;231333.00;;;;5043144;28;20626;-75
2022/12/25 05:37:23;;;;;;;0.10;0.10;;;7.60;99.90;226.50;231333.00;;;;5045248;28;20206;-74
2022/12/25 05:39:51;;;;;;;0.10;0.10;;;7.50;99.90;226.50;231333.00;;;;5044330;28;20217;-74
2022/12/25 05:42:19;;;;;;;0.10;0.10;;;7.50;99.90;226.50;231333.00;;;;5033062;28;20627;-74
2022/12/25 05:44:47;;;;;;;0.10;0.10;;;7.50;99.90;226.50;231333.00;;;;5044038;28;20226;-75
2022/12/25 05:47:15;;;;;;;0.10;0.10;;;7.50;99.90;226.50;231333.00;;;;5043532;28;20219;-75
2022/12/25 05:49:43;;;;;;;0.10;0.10;;;7.50;99.90;226.50;231333.00;;;;5043720;28;20592;-74
2022/12/25 05:52:12;;;;;;;0.10;0.10;;;7.50;99.90;226.50;231333.00;;;;5034573;28;20203;-74
2022/12/25 05:54:40;;;;;;;0.10;0.10;;;7.50;99.90;226.50;231333.00;;;;5044031;28;20548;-74
2022/12/25 05:57:08;;;;;;;0.10;0.10;;;7.60;99.90;226.50;231333.00;;;;5033542;28;20752;-74
2022/12/25 05:59:36;;;;;;;0.10;0.10;;;7.50;99.90;226.50;231333.00;;;;5037296;28;20188;-75
2022/12/25 06:02:04;;;;;;;0.10;0.10;;;7.60;99.90;226.50;231333.00;;;;5044562;28;20195;-74
2022/12/25 06:04:32;;;;;;;0.10;0.10;;;7.60;99.90;226.50;231333.00;;;;5039436;28;20193;-74
2022/12/25 06:07:00;;;;;;;0.10;0.10;;;7.60;99.90;226.50;231333.00;;;;5040588;28;20223;-74
2022/12/25 06:09:29;;;;;;;0.10;0.10;;;7.60;99.90;226.50;231333.00;;;;5039943;28;20261;-73
2022/12/25 06:11:57;;;;;;;0.10;0.10;;;7.50;99.90;226.50;231333.00;;;;5040284;28;20198;-73
2022/12/25 06:14:25;;;;;;;0.10;0.10;;;7.50;99.90;226.50;231333.00;;;;5040139;28;20245;-73
2022/12/25 06:16:53;;;;;;;0.10;0.10;;;7.50;99.90;226.50;231333.00;;;;5040139;28;20624;-73
2022/12/25 06:19:22;;;;;;;0.10;0.10;;;7.60;99.90;226.50;231333.00;;;;5041515;28;20198;-73
2022/12/25 06:21:53;;;;;;;0.10;0.10;;;7.60;99.90;226.50;231333.00;;;;5040214;28;20195;-73
2022/12/25 06:24:22;;;;;;;0.10;0.10;;;7.50;99.90;226.50;231333.00;;;;5033641;28;20207;-73
2022/12/25 06:26:51;;;;;;;0.10;0.10;;;7.50;99.90;226.50;231333.00;;;;5035612;28;20211;-74
2022/12/25 06:29:19;;;;;;;0.00;0.00;;;7.60;99.90;226.50;231333.00;;;;5032047;28;20191;-73
2022/12/25 06:31:47;;;;;;;0.10;0.10;;;7.60;99.90;226.50;231333.00;;;;5039866;28;20199;-73
2022/12/25 06:34:16;;;;;;;0.10;0.10;;;7.60;99.90;226.50;231333.00;;;;5029895;28;20561;-74
2022/12/25 06:36:43;;;;;;;0.10;0.10;;;7.70;99.90;226.50;231333.00;;;;5036305;28;20629;-73
2022/12/25 06:39:11;;;;;;;0.10;0.10;;;7.70;99.90;226.50;231333.00;;;;5035127;28;20207;-74
2022/12/25 06:41:39;;;;;;;0.10;0.10;;;7.60;99.90;226.50;231333.00;;;;5046442;28;20202;-73
2022/12/25 06:44:09;;;;;;;0.10;0.10;;;7.60;99.90;226.50;231333.00;;;;5035432;28;20622;-74
2022/12/25 06:46:37;;;;;;;0.10;0.10;;;7.60;99.90;226.50;231333.00;;;;5045090;28;20701;-74
2022/12/25 06:49:05;;;;;;;0.08;0.08;;;7.60;99.90;226.50;231333.00;;;;5041316;28;20249;-74
2022/12/25 06:51:34;;;;;;;0.10;0.10;;;7.60;99.90;226.50;231333.00;;;;5041955;28;20726;-74
2022/12/25 06:54:03;;;;;;;0.10;0.10;;;7.50;99.90;226.50;231333.00;;;;5040721;28;20227;-73
2022/12/25 06:56:33;;;;;;;0.10;0.10;;;7.50;99.90;226.50;231333.00;;;;5038009;28;20628;-74
2022/12/25 06:59:05;;;;;;;0.10;0.10;;;7.50;99.90;226.50;231333.00;;;;5031294;28;20587;-74
2022/12/25 07:01:39;;;;;;;0.10;0.10;;;7.50;99.90;226.50;231333.00;;;;5043382;28;20194;-74
2022/12/25 07:04:15;;;;;;;0.10;0.10;;;7.50;99.90;226.50;231333.00;;;;5040792;28;20206;-73
2022/12/25 07:06:43;;;;;;;0.00;0.00;;;7.50;99.90;226.50;231333.00;;;;5045373;28;20232;-73
2022/12/25 07:09:11;;;;;;;0.10;0.10;;;7.50;99.90;226.50;231333.00;;;;5040418;28;20260;-73
2022/12/25 07:11:39;;;;;;;0.05;0.05;;;7.60;99.90;226.50;231333.00;;;;5045126;28;20245;-73
2022/12/25 07:14:07;;;;;;;0.10;0.10;;;7.60;99.90;226.50;231333.00;;;;5040366;28;20217;-73
2022/12/25 07:16:36;;;;;;;0.10;0.10;;;7.60;99.90;226.50;231333.00;;;;5033993;28;20626;-73
2022/12/25 07:19:04;;;;;;;0.10;0.10;;;7.60;99.90;226.50;231333.00;;;;5045547;28;20209;-73
2022/12/25 07:21:32;;;;;;;0.10;0.10;;;7.60;99.90;226.50;231333.00;;;;5039341;28;20190;-73
2022/12/25 07:24:00;;;;;;;0.10;0.10;;;7.70;99.90;226.50;231333.00;;;;5045033;28;20194;-73
2022/12/25 07:26:28;;;;;;;0.10;0.10;;;7.70;99.90;226.50;231333.00;;;;5033819;28;20268;-74
2022/12/25 07:28:56;;;;;;;0.10;0.10;;;7.70;99.90;226.50;231333.00;;;;5030940;28;20598;-73
2022/12/25 07:31:24;;;;;;;0.10;0.10;;;7.70;99.90;226.50;231333.00;;;;5039291;28;20187;-73
2022/12/25 07:33:54;;;;;;;0.10;0.10;;;7.70;99.90;226.50;231333.00;;;;5039256;28;20205;-73
2022/12/25 07:36:22;;;;;;;0.10;0.10;;;7.70;99.90;226.50;231333.00;;;;5037064;28;20214;-73
2022/12/25 07:38:50;;;;;;;0.10;0.10;;;7.70;99.90;226.50;231333.00;;;;5032662;28;20223;-73
2022/12/25 07:41:18;;;;;;;0.10;0.10;;;7.70;99.90;226.50;231333.00;;;;5031414;28;20261;-73
2022/12/25 07:43:50;;;;;;;0.10;0.10;;;7.80;99.90;226.50;231333.00;;;;5039232;28;20261;-73
2022/12/25 07:46:20;;;;;;;0.10;0.10;;;7.80;99.90;226.50;231333.00;;;;5031532;28;20218;-73
2022/12/25 07:48:48;;;;;;;0.10;0.10;;;7.80;99.90;226.50;231333.00;;;;5039000;28;20245;-73
2022/12/25 07:51:17;;;;;;;0.10;0.10;;;7.80;99.90;226.50;231333.00;;;;5046499;28;20248;-72
2022/12/25 07:53:45;;;;;;;0.10;0.10;;;7.90;99.90;226.50;231333.00;;;;5045259;28;20206;-72
2022/12/25 07:56:16;;;;;;;0.10;0.10;;;7.90;99.90;226.50;231333.00;;;;5045235;28;20708;-72
2022/12/25 07:58:45;;;;;;;0.10;0.10;;;7.90;99.90;226.50;231333.00;;;;5038179;28;20191;-72
2022/12/25 08:01:16;;;;;;;0.10;0.10;;;7.90;99.90;226.50;231333.00;;;;5045632;28;20252;-72
2022/12/25 08:03:49;;;;;;;0.10;0.10;;;7.90;99.90;226.50;231333.00;;;;5049727;28;20202;-73
2022/12/25 08:06:21;;;;;;;0.10;0.10;;;8.00;99.90;226.50;231333.00;;;;5043241;28;20225;-73
2022/12/25 08:08:49;;;;;;;0.10;0.10;;;8.00;99.90;226.50;231333.00;;;;5046248;28;20236;-73
2022/12/25 08:11:17;;;;;;;0.10;0.10;;;8.00;99.90;226.50;231333.00;;;;5045768;28;20197;-73
2022/12/25 08:13:45;;;;;;;0.05;0.05;;;8.00;99.90;226.50;231333.00;;;;5046166;28;20195;-73
2022/12/25 08:16:13;;;;;;;0.10;0.10;;;8.00;99.90;226.50;231333.00;;;;5034227;28;20314;-73
2022/12/25 08:18:42;;;;;;;0.10;0.10;;;8.10;99.90;226.50;231333.00;;;;5045346;28;20195;-73
2022/12/25 08:21:13;;;;;;;0.10;0.10;;;8.10;99.90;226.50;231333.00;;;;5044221;28;20194;-73
2022/12/25 08:23:45;;;;;;;0.10;0.10;;;8.10;99.90;226.50;231333.00;;;;5046933;28;20712;-73
2022/12/25 08:26:16;;;;;;;0.10;0.10;;;8.10;99.90;226.50;231333.00;;;;5037445;28;20307;-74
2022/12/25 08:28:45;;;;;;;0.00;0.00;;;8.10;99.90;226.50;231333.00;;;;5029468;28;20545;-74
2022/12/25 08:31:17;;;;;;;0.00;0.00;;;8.10;99.90;226.50;231333.00;;;;5047817;28;20272;-74
2022/12/25 08:33:47;;;;;;;0.10;0.10;;;8.10;99.90;6.80;94292.00;;;;5038024;28;20187;-75
2022/12/25 08:36:16;;;;;;;0.10;0.10;;;8.10;99.90;6.80;94518.00;;;;5048240;28;20281;-74
2022/12/25 08:38:46;;;;;;;0.10;0.10;;;8.10;99.90;6.70;95101.00;;;;5042729;28;20199;-74
2022/12/25 08:41:16;;;;;;;0.10;0.10;;;8.20;99.90;6.70;95082.00;;;;5048195;28;20612;-74
2022/12/25 08:43:44;;;;;;;0.10;0.10;;;8.20;99.90;6.70;94997.00;;;;5037052;28;20215;-74
2022/12/25 08:46:13;;;;;;;0.10;0.10;;;8.20;99.90;6.80;95364.00;;;;5048891;28;20709;-74
2022/12/25 08:48:45;;;;;;;0.10;0.10;;;8.30;99.90;6.80;95874.00;;;;5041901;28;20222;-74
2022/12/25 08:51:16;;;;;;;0.10;0.10;;;8.30;99.90;7.20;96996.00;;;;5037015;28;20277;-74
2022/12/25 08:53:48;;;;;;;0.10;0.10;;;8.30;99.90;7.10;96833.00;;;;5044430;28;20735;-74
2022/12/25 08:56:18;;;;;;;0.10;0.10;;;8.30;99.90;7.30;97071.00;;;;5041453;28;20223;-74
2022/12/25 08:58:46;;;;;;;0.10;0.10;;;8.40;99.90;7.30;97049.00;;;;5037732;28;20263;-74
2022/12/25 09:01:14;;;;;;;0.10;0.10;;;8.40;99.90;7.30;97057.00;;;;5041722;28;20203;-74
2022/12/25 09:03:43;;;;;;;0.10;0.10;;;8.40;99.90;7.30;97063.00;;;;5045027;28;20289;-74
2022/12/25 09:06:14;;;;;;;0.10;0.10;;;8.40;99.90;7.30;97060.00;;;;5032608;28;22293;-72
2022/12/25 09:08:43;;;;;;;0.08;0.08;;;8.40;99.90;7.30;97012.00;;;;5026428;28;20195;-71
2022/12/25 09:11:19;;;;;;;0.00;0.00;;;8.40;99.90;7.30;97039.00;;;;5040608;28;20727;-71
2022/12/25 09:13:48;;;;;;;0.10;0.10;;;8.40;99.90;7.20;96924.00;;;;5044906;28;20233;-72
2022/12/25 09:16:19;;;;;;;0.10;0.10;;;8.50;99.90;7.30;96891.00;;;;5036817;28;20257;-71
2022/12/25 09:18:48;;;;;;;0.10;0.10;;;8.50;99.90;7.40;97081.00;;;;5041373;28;20606;-72
2022/12/25 09:21:17;;;;;;;0.10;0.10;;;8.50;99.90;7.40;97027.00;;;;5037074;28;20249;-71
2022/12/25 09:23:45;;;;;;;0.10;0.10;;;8.50;99.90;7.40;97067.00;;;;5047076;28;20194;-72
2022/12/25 09:26:18;;;;;;;0.08;0.08;;;8.50;99.90;7.50;97042.00;;;;5035038;28;20266;-72
2022/12/25 09:28:46;;;;;;;0.08;0.08;;;8.60;99.90;7.50;97018.00;;;;5032871;28;20203;-71
2022/12/25 09:31:20;;;;;;;0.10;0.10;;;8.60;99.90;7.20;96779.00;;;;5033914;28;20199;-72
2022/12/25 09:33:49;;;;;;;0.10;0.10;;;8.60;99.90;7.50;97022.00;;;;5037861;28;20238;-72
2022/12/25 09:36:17;;;;;;;0.10;0.10;;;8.70;99.90;7.60;97009.00;;;;5048323;28;20230;-72
2022/12/25 09:38:44;;;;;;;0.08;0.08;;;8.70;99.90;7.60;97024.00;;;;5041427;28;20257;-72
2022/12/25 09:41:22;;;;;;;0.10;0.10;;;8.70;99.90;7.20;95658.00;;;;5040095;28;20221;-72
2022/12/25 09:43:55;;;;;;;0.10;0.10;;;8.70;99.90;7.20;95766.00;;;;5041597;28;20199;-72
2022/12/25 09:46:31;;;;;;;0.03;0.03;;;8.80;99.90;7.20;95906.00;;;;5048085;28;20223;-72
2022/12/25 09:49:15;;;;;;;0.10;0.10;;;8.80;99.90;7.30;95985.00;;;;5039607;28;20621;-72
2022/12/25 09:51:46;;;;;;;0.00;0.00;;;8.80;99.90;7.30;96078.00;;;;5043749;28;20199;-72
2022/12/25 09:54:22;;;;;;;0.10;0.10;;;8.80;99.90;7.20;95994.00;;;;5043355;28;20225;-72
2022/12/25 09:56:51;;;;;;;0.10;0.10;;;8.80;99.90;7.20;96038.00;;;;5043172;28;20244;-72
2022/12/25 09:59:26;;;;;;;0.10;0.10;;;8.80;99.90;7.30;96046.00;;;;5024510;28;20207;-73
2022/12/25 10:02:36;;;;;;;0.10;0.10;;;8.80;99.90;7.40;96038.00;;;;5045148;28;20248;-73
2022/12/25 10:05:35;;;;;;;0.10;0.10;;;8.90;99.90;7.40;96010.00;;;;5040304;28;20194;-73
2022/12/25 10:08:20;;;;;;;0.10;0.10;;;8.90;99.90;7.40;96051.00;;;;5040419;28;20199;-72
2022/12/25 10:10:56;;;;;;;0.10;0.10;;;8.90;99.90;7.40;96077.00;;;;5040182;28;20202;-72
2022/12/25 10:13:48;;;;;;;0.00;0.00;;;9.00;99.90;7.40;96129.00;;;;5024352;28;20201;-72
2022/12/25 10:16:30;;;;;;;0.10;0.10;;;8.90;99.90;7.60;96001.00;;;;5040425;28;20589;-72
2022/12/25 10:19:17;;;;;;;0.10;0.10;;;9.00;99.90;7.60;96052.00;;;;5042334;28;20774;-72
2022/12/25 10:21:47;;;;;;;0.10;0.10;;;9.10;99.90;7.60;96078.00;;;;5035525;28;20237;-72
2022/12/25 10:24:31;;;;;;;0.10;0.10;;;9.00;99.90;7.60;96120.00;;;;5046451;28;20674;-71
2022/12/25 10:27:04;;;;;;;0.10;0.10;;;9.00;99.90;7.60;96026.00;;;;5033477;28;20250;-72
2022/12/25 10:29:37;;;;;;;0.10;0.10;;;9.10;99.90;7.50;96013.00;;;;5034452;28;20206;-72
2022/12/25 10:32:05;;;;;;;0.10;0.10;;;9.00;99.90;7.60;96092.00;;;;5020522;28;20612;-72
2022/12/25 10:34:34;;;;;;;0.00;0.00;;;9.10;99.90;7.70;96075.00;;;;5043612;28;20191;-72
2022/12/25 10:37:02;;;;;;;0.10;0.10;;;9.10;99.90;7.70;96131.00;;;;5023631;28;20261;-72
2022/12/25 10:39:30;;;;;;;0.10;0.10;;;9.20;99.90;7.80;96201.00;;;;5043645;28;20225;-72
2022/12/25 10:42:23;;;;;;;0.10;0.10;;;9.20;99.90;7.80;96480.00;;;;5041821;28;20202;-72
2022/12/25 10:44:58;;;;;;;0.10;0.10;;;9.20;99.90;7.80;96440.00;;;;5042806;28;20202;-72
2022/12/25 10:47:30;;;;;;;0.10;0.10;;;9.20;99.90;8.20;96983.00;;;;5034809;28;20216;-73
2022/12/25 10:50:00;;;;;;;0.10;0.10;;;9.20;99.90;8.30;96976.00;;;;5042364;28;20209;-72
2022/12/25 10:52:29;;;;;;;0.10;0.10;;;9.30;99.90;8.40;96979.00;;;;5042859;28;20194;-72
2022/12/25 10:54:57;;;;;;;0.10;0.10;;;9.40;99.90;8.40;96635.00;;;;5042800;28;20602;-72
2022/12/25 10:57:26;;;;;;;0.00;0.00;;;9.60;99.90;8.30;96626.00;;;;5038455;28;20269;-72
2022/12/25 10:59:57;;;;;;;0.10;0.10;;;9.60;99.90;8.20;96613.00;;;;5031989;28;20195;-72
2022/12/25 11:02:27;;;;;;;0.10;0.10;;;9.50;99.90;8.20;96629.00;;;;5044664;28;20256;-71
2022/12/25 11:05:02;;;;;;;0.10;0.10;;;9.50;99.90;8.20;96615.00;;;;5039839;28;20187;-73
2022/12/25 11:07:33;;;;;;;0.08;0.08;;;9.50;99.90;8.30;96667.00;;;;5044805;28;20276;-72
2022/12/25 11:10:04;;;;;;;0.10;0.10;;;9.50;99.90;8.30;96706.00;;;;5041067;28;20191;-72
2022/12/25 11:12:37;;;;;;;0.10;0.10;;;9.50;99.90;8.50;96971.00;;;;5045622;28;20230;-72
2022/12/25 11:15:36;;;;;;;0.03;0.03;;;9.50;99.90;8.50;96948.00;;;;5039459;28;20261;-72
2022/12/25 11:18:17;;;;;;;0.10;0.10;;;9.60;99.90;8.60;96982.00;;;;5030561;28;20229;-73
2022/12/25 11:20:50;;;;;;;0.10;0.10;;;9.60;99.90;8.60;96790.00;;;;5031655;28;20199;-72
2022/12/25 11:23:20;;;;;;;0.00;0.00;;;9.70;99.90;8.70;96924.00;;;;5031381;28;20203;-72
2022/12/25 11:25:57;;;;;;;0.10;0.10;;;9.70;99.90;8.80;96949.00;;;;5035094;28;20272;-72
2022/12/25 11:28:26;;;;;;;0.10;0.10;;;9.80;99.90;8.90;96943.00;;;;5030506;28;20604;-72
2022/12/25 11:31:02;;;;;;;0.10;0.10;;;9.90;99.90;9.00;96936.00;;;;5039542;28;20276;-72
2022/12/25 11:33:37;;;;;;;0.10;0.10;;;10.00;99.90;9.00;96938.00;;;;5039517;28;20278;-72
2022/12/25 11:36:18;;;;;;;0.10;0.10;;;10.00;99.90;9.00;96942.00;;;;5046250;28;20575;-72
2022/12/25 11:38:46;;;;;;;0.10;0.10;;;10.00;99.90;9.00;96935.00;;;;5040704;28;20285;-72
2022/12/25 11:41:21;;;;;;;0.08;0.08;;;10.00;99.90;8.90;96942.00;;;;5044643;28;20205;-72
2022/12/25 11:43:55;;;;;;;0.10;0.10;;;10.00;99.90;8.80;96864.00;;;;5049842;28;20198;-72
2022/12/25 11:46:30;;;;;;;0.10;0.10;;;9.90;99.90;8.70;96802.00;;;;5037741;28;20222;-72
2022/12/25 11:49:07;;;;;;;0.10;0.10;;;9.80;99.90;8.70;96793.00;;;;5041663;28;20269;-72
2022/12/25 11:51:39;;;;;;;0.10;0.10;;;9.80;99.90;8.70;96841.00;;;;5041008;28;20229;-71
2022/12/25 11:54:19;;;;;;;0.10;0.10;;;9.80;99.90;8.70;96858.00;;;;5043733;28;20359;-72
2022/12/25 11:56:48;;;;;;;0.00;0.00;;;9.80;99.90;8.60;96788.00;;;;5040904;28;20218;-72
2022/12/25 11:59:24;;;;;;;0.10;0.10;;;9.70;99.90;8.60;96781.00;;;;5022311;28;20211;-72
2022/12/25 12:01:59;;;;;;;0.10;0.10;;;9.70;99.90;8.50;96789.00;;;;5035199;28;20223;-72
2022/12/25 12:04:34;;;;;;;0.10;0.10;;;9.70;99.90;8.60;96790.00;;;;5033754;28;20223;-72
2022/12/25 12:07:18;;;;;;;0.10;0.10;;;9.70;99.90;8.50;96776.00;;;;5039562;28;20226;-72
2022/12/25 12:09:57;;;;;;;0.10;0.10;;;9.70;99.90;8.50;96774.00;;;;5038960;28;20672;-72
2022/12/25 12:12:34;;;;;;;0.10;0.10;;;9.70;99.90;8.20;96760.00;;;;5032795;28;20203;-72
2022/12/25 12:15:16;;;;;;;0.10;0.10;;;9.70;99.90;8.50;96776.00;;;;5037977;28;20194;-72
2022/12/25 12:17:46;;;;;;;0.00;0.00;;;9.70;99.90;8.60;96814.00;;;;5041968;28;20296;-72
2022/12/25 12:20:28;;;;;;;0.00;0.00;;;9.70;99.90;8.60;96823.00;;;;5042188;28;20213;-72
2022/12/25 12:22:57;;;;;;;0.10;0.10;;;9.70;99.90;8.60;96851.00;;;;5040431;28;20609;-72
2022/12/25 12:25:27;;;;;;;0.10;0.10;;;9.70;99.90;8.50;96836.00;;;;5036630;28;20191;-72
2022/12/25 12:27:59;;;;;;;0.10;0.10;;;9.60;99.90;8.50;96809.00;;;;5030532;28;20203;-72
2022/12/25 12:30:35;;;;;;;0.10;0.10;;;9.60;99.90;8.60;96841.00;;;;5036194;28;20197;-73
2022/12/25 12:33:07;;;;;;;0.10;0.10;;;9.70;99.90;8.60;96841.00;;;;5040723;28;20244;-70
2022/12/25 12:35:39;;;;;;;0.10;0.10;;;9.60;99.90;8.60;96847.00;;;;5044015;28;20627;-71
2022/12/25 12:38:15;;;;;;;0.00;0.00;;;9.70;99.90;8.60;96852.00;;;;5035114;28;20695;-71
2022/12/25 12:40:53;;;;;;;0.00;0.00;;;9.70;99.90;8.60;96825.00;;;;5040446;28;20194;-71
2022/12/25 12:43:32;;;;;;;0.00;0.00;;;9.70;99.90;8.60;96866.00;;;;5037985;28;20195;-71
2022/12/25 12:46:07;;;;;;;0.10;0.10;;;9.70;99.90;8.70;96854.00;;;;5040158;28;20553;-73
2022/12/25 12:48:42;;;;;;;0.10;0.10;;;9.70;99.90;8.60;96871.00;;;;5040491;28;20577;-71
2022/12/25 12:51:13;;;;;;;0.10;0.10;;;9.80;99.90;226.50;231333.00;;;;5044424;28;20199;-72
2022/12/25 12:53:43;;;;;;;0.10;0.10;;;9.80;99.90;226.50;231333.00;;;;5044664;28;20741;-71
2022/12/25 12:56:15;;;;;;;0.10;0.10;;;9.80;99.90;226.50;231333.00;;;;5044202;28;20280;-71
2022/12/25 12:58:49;;;;;;;0.00;0.00;;;9.80;99.90;226.50;231333.00;;;;5036984;28;20219;-71
2022/12/25 13:01:45;;;;;;;0.10;0.10;;;9.80;99.90;226.50;231333.00;;;;5037351;28;20203;-71
2022/12/25 13:04:53;;;;;;;0.10;0.10;;;9.80;99.90;226.50;231333.00;;;;5038140;28;20206;-71